Time;durP1;ratioP1;P1;durP2;ratioP2;P2;SDS_P1;SDS_P2;PMS_P1;PMS_P2;Temp;Humidity;BMP_temperature;BMP_pressure;BME280_temperature;BME280_humidity;BME280_pressure;Samples;Min_cycle;Max_cycle;Signal;HPM_P1;HPM_P2
2023/07/26 00:01:46;;;;;;;1.20;0.77;;;20.00;81.80;;;;;;5116359;28;20055;-75
2023/07/26 00:04:11;;;;;;;2.65;0.88;;;20.00;81.70;;;;;;5116262;28;20019;-75
2023/07/26 00:06:37;;;;;;;1.80;0.70;;;19.90;82.00;;;;;;5116102;28;20035;-75
2023/07/26 00:09:03;;;;;;;4.13;0.70;;;19.90;82.10;;;;;;5115778;28;20480;-75
2023/07/26 00:11:29;;;;;;;1.60;0.60;;;19.80;82.40;;;;;;5116096;28;20091;-74
2023/07/26 00:13:55;;;;;;;1.92;0.60;;;19.80;82.60;;;;;;5116054;28;20028;-74
2023/07/26 00:16:21;;;;;;;3.05;0.80;;;19.80;82.80;;;;;;5115670;28;20055;-75
2023/07/26 00:18:46;;;;;;;3.55;0.80;;;19.70;82.90;;;;;;5115677;28;20031;-74
2023/07/26 00:21:12;;;;;;;2.22;0.70;;;19.70;83.00;;;;;;5115945;28;20028;-74
2023/07/26 00:23:38;;;;;;;1.00;0.40;;;19.60;83.20;;;;;;5115902;28;20034;-74
2023/07/26 00:26:03;;;;;;;1.75;0.30;;;19.60;83.40;;;;;;5097866;28;20084;-75
2023/07/26 00:28:29;;;;;;;3.05;1.02;;;19.50;83.60;;;;;;5115642;28;20088;-74
2023/07/26 00:30:55;;;;;;;2.38;0.65;;;19.50;83.80;;;;;;5097447;28;20032;-74
2023/07/26 00:33:20;;;;;;;1.85;0.73;;;19.40;83.90;;;;;;5115649;28;20024;-75
2023/07/26 00:35:46;;;;;;;2.05;0.85;;;19.40;84.20;;;;;;5097190;28;20030;-75
2023/07/26 00:38:12;;;;;;;2.55;1.08;;;19.40;84.50;;;;;;5115825;28;20031;-74
2023/07/26 00:40:38;;;;;;;2.08;0.98;;;19.30;84.80;;;;;;5097436;28;20031;-75
2023/07/26 00:43:05;;;;;;;2.50;0.85;;;19.30;85.10;;;;;;5115764;28;20106;-74
2023/07/26 00:45:35;;;;;;;3.65;1.27;;;19.20;86.00;;;;;;5115444;28;20034;-75
2023/07/26 00:48:01;;;;;;;3.63;1.00;;;19.20;85.60;;;;;;5115034;28;20122;-74
2023/07/26 00:50:27;;;;;;;3.85;1.30;;;19.10;85.70;;;;;;5115352;28;20160;-74
2023/07/26 00:52:53;;;;;;;2.28;1.70;;;19.10;86.00;;;;;;5115608;28;20463;-75
2023/07/26 00:55:19;;;;;;;4.07;1.55;;;19.00;86.10;;;;;;5115219;28;20032;-74
2023/07/26 00:57:46;;;;;;;5.53;2.25;;;18.80;86.70;;;;;;5096573;28;20062;-75
2023/07/26 01:00:13;;;;;;;2.92;1.65;;;18.60;87.40;;;;;;5114755;28;20027;-74
2023/07/26 01:02:38;;;;;;;5.57;2.03;;;18.40;87.70;;;;;;5115623;28;20030;-74
2023/07/26 01:05:06;;;;;;;2.85;1.65;;;18.40;88.20;;;;;;5115082;28;20027;-74
2023/07/26 01:07:52;;;;;;;2.35;1.17;;;18.30;88.20;;;;;;5097456;28;20106;-74
2023/07/26 01:10:29;;;;;;;4.00;1.42;;;18.20;88.50;;;;;;5114897;28;20028;-74
2023/07/26 01:13:19;;;;;;;0.88;0.40;;;18.20;88.90;;;;;;5114409;28;20063;-74
2023/07/26 01:15:47;;;;;;;3.17;1.40;;;18.30;89.00;;;;;;5113834;28;20039;-74
2023/07/26 01:18:15;;;;;;;2.97;1.90;;;18.40;88.90;;;;;;5114809;28;20032;-74
2023/07/26 01:20:41;;;;;;;2.83;1.63;;;18.40;89.40;;;;;;5114731;28;20031;-75
2023/07/26 01:23:07;;;;;;;2.55;1.20;;;18.40;88.70;;;;;;5114523;28;20026;-74
2023/07/26 01:25:34;;;;;;;2.67;1.88;;;18.40;88.80;;;;;;5096994;28;20035;-75
2023/07/26 01:27:59;;;;;;;3.10;1.10;;;18.30;88.40;;;;;;5096224;28;20031;-75
2023/07/26 01:30:30;;;;;;;4.53;0.98;;;18.30;88.30;;;;;;5096596;28;20035;-74
2023/07/26 01:33:04;;;;;;;1.92;1.13;;;18.20;88.50;;;;;;5096587;28;20028;-74
2023/07/26 01:35:30;;;;;;;3.53;1.38;;;18.20;88.70;;;;;;5114491;28;20123;-74
2023/07/26 01:37:57;;;;;;;2.42;1.60;;;18.20;88.70;;;;;;5114808;28;20114;-75
2023/07/26 01:40:23;;;;;;;1.92;1.73;;;18.10;88.60;;;;;;5114078;28;20479;-74
2023/07/26 01:42:49;;;;;;;3.05;2.13;;;18.10;88.70;;;;;;5096519;28;20517;-74
2023/07/26 01:45:16;;;;;;;2.17;1.45;;;18.00;88.80;;;;;;5078992;28;20073;-74
2023/07/26 01:47:41;;;;;;;3.45;1.83;;;17.90;88.90;;;;;;5114286;28;20459;-74
2023/07/26 01:50:08;;;;;;;2.25;2.00;;;17.90;89.30;;;;;;5114017;28;20035;-75
2023/07/26 01:52:33;;;;;;;2.30;1.42;;;17.80;89.40;;;;;;5096250;28;20080;-75
2023/07/26 01:55:00;;;;;;;2.28;1.83;;;17.80;89.70;;;;;;5114511;28;20027;-74
2023/07/26 01:57:26;;;;;;;6.10;2.35;;;17.80;89.80;;;;;;5114385;28;20051;-74
2023/07/26 01:59:52;;;;;;;3.15;1.77;;;17.80;89.90;;;;;;5114224;28;20028;-75
2023/07/26 02:02:18;;;;;;;2.70;1.65;;;17.80;90.00;;;;;;5114737;28;20036;-74
2023/07/26 02:04:44;;;;;;;3.25;2.40;;;17.80;90.10;;;;;;5114189;28;20027;-74
2023/07/26 02:07:10;;;;;;;3.03;2.72;;;17.80;90.10;;;;;;5114161;28;20464;-74
2023/07/26 02:09:36;;;;;;;3.53;1.90;;;17.70;90.10;;;;;;5114051;28;20042;-74
2023/07/26 02:12:02;;;;;;;3.13;2.33;;;17.50;90.30;;;;;;5114378;28;20032;-75
2023/07/26 02:14:28;;;;;;;2.63;2.30;;;17.60;90.60;;;;;;5113995;28;20144;-74
2023/07/26 02:16:54;;;;;;;2.38;1.80;;;17.50;90.60;;;;;;5114080;28;20032;-74
2023/07/26 02:19:19;;;;;;;1.50;0.82;;;17.50;90.60;;;;;;5114046;28;20030;-74
2023/07/26 02:21:45;;;;;;;1.67;1.30;;;17.50;90.80;;;;;;5113704;28;20464;-75
2023/07/26 02:24:11;;;;;;;1.08;0.73;;;17.70;91.00;;;;;;5117593;28;20065;-74
2023/07/26 02:26:36;;;;;;;1.55;1.33;;;17.80;91.00;;;;;;5118103;28;20031;-75
2023/07/26 02:29:02;;;;;;;1.58;0.63;;;17.90;91.00;;;;;;5117744;28;20042;-74
2023/07/26 02:31:28;;;;;;;2.38;0.60;;;17.90;91.00;;;;;;5118037;28;20032;-74
2023/07/26 02:33:53;;;;;;;2.78;1.13;;;18.10;90.90;;;;;;5099725;28;20471;-74
2023/07/26 02:36:19;;;;;;;1.13;0.80;;;18.20;90.80;;;;;;5117923;28;20035;-74
2023/07/26 02:38:45;;;;;;;1.85;1.00;;;18.30;90.60;;;;;;5117923;28;20051;-74
2023/07/26 02:41:10;;;;;;;1.00;0.65;;;18.30;90.60;;;;;;5117607;28;20028;-74
2023/07/26 02:43:36;;;;;;;0.93;0.47;;;18.40;90.60;;;;;;5099760;28;20024;-74
2023/07/26 02:46:02;;;;;;;1.70;0.68;;;18.50;90.50;;;;;;5099722;28;20071;-75
2023/07/26 02:48:27;;;;;;;1.60;0.88;;;18.60;90.40;;;;;;5117705;28;20046;-75
2023/07/26 02:50:53;;;;;;;2.05;1.08;;;18.60;90.30;;;;;;5099556;28;20031;-75
2023/07/26 02:53:19;;;;;;;2.47;0.70;;;18.70;90.20;;;;;;5099349;28;20028;-75
2023/07/26 02:55:44;;;;;;;2.72;1.20;;;18.70;90.10;;;;;;5099539;28;20491;-74
2023/07/26 02:58:10;;;;;;;1.40;1.20;;;18.80;90.10;;;;;;5099151;28;20059;-74
2023/07/26 03:00:36;;;;;;;2.05;0.93;;;18.80;90.00;;;;;;5117563;28;20023;-75
2023/07/26 03:03:01;;;;;;;1.05;0.95;;;18.90;90.00;;;;;;5117510;28;20035;-75
2023/07/26 03:05:28;;;;;;;1.98;0.70;;;18.90;90.00;;;;;;5117868;28;20051;-74
2023/07/26 03:07:54;;;;;;;1.67;0.90;;;18.90;89.90;;;;;;5099230;28;20046;-75
2023/07/26 03:10:19;;;;;;;1.95;1.10;;;18.90;89.80;;;;;;5098933;28;20438;-75
2023/07/26 03:12:45;;;;;;;1.70;0.90;;;18.90;89.80;;;;;;5116990;28;20103;-75
2023/07/26 03:15:11;;;;;;;1.83;0.70;;;19.00;89.70;;;;;;5117245;28;20059;-75
2023/07/26 03:17:36;;;;;;;2.05;1.00;;;19.00;89.50;;;;;;5098881;28;20073;-75
2023/07/26 03:20:03;;;;;;;0.95;0.70;;;19.00;89.40;;;;;;5116868;28;20035;-75
2023/07/26 03:22:29;;;;;;;2.28;1.55;;;19.10;89.30;;;;;;5117087;28;20024;-75
2023/07/26 03:24:54;;;;;;;1.10;0.73;;;19.10;89.20;;;;;;5117045;28;20031;-75
2023/07/26 03:27:20;;;;;;;1.20;0.98;;;19.10;89.00;;;;;;5116663;28;20063;-74
2023/07/26 03:29:46;;;;;;;2.80;0.77;;;19.10;88.90;;;;;;5116836;28;20087;-74
2023/07/26 03:32:12;;;;;;;1.10;0.57;;;19.10;89.00;;;;;;5117201;28;20420;-75
2023/07/26 03:34:38;;;;;;;1.58;0.80;;;19.10;89.00;;;;;;5115793;28;20032;-75
2023/07/26 03:37:03;;;;;;;2.40;1.10;;;19.10;88.90;;;;;;5081642;28;20072;-75
2023/07/26 03:39:29;;;;;;;1.35;1.25;;;19.10;88.80;;;;;;5116697;28;20131;-75
2023/07/26 03:41:55;;;;;;;1.30;1.02;;;19.10;88.80;;;;;;5116509;28;20507;-75
2023/07/26 03:44:21;;;;;;;1.75;1.30;;;19.10;88.80;;;;;;5116650;28;20028;-75
2023/07/26 03:46:46;;;;;;;1.48;1.13;;;19.10;88.70;;;;;;5116578;28;20361;-74
2023/07/26 03:49:12;;;;;;;1.92;1.42;;;19.10;88.70;;;;;;5116773;28;20040;-75
2023/07/26 03:51:37;;;;;;;1.45;1.17;;;19.10;88.60;;;;;;5116516;28;20031;-75
2023/07/26 03:54:03;;;;;;;1.95;1.50;;;19.10;88.70;;;;;;5098141;28;20032;-75
2023/07/26 03:56:29;;;;;;;1.75;1.05;;;19.10;88.70;;;;;;5116615;28;20031;-75
2023/07/26 03:58:55;;;;;;;1.48;1.10;;;19.10;88.70;;;;;;5117050;28;20052;-74
2023/07/26 04:01:20;;;;;;;1.23;1.13;;;19.10;88.70;;;;;;5116461;28;20039;-74
2023/07/26 04:03:46;;;;;;;2.30;1.10;;;19.10;88.70;;;;;;5116736;28;20027;-75
2023/07/26 04:06:12;;;;;;;1.55;1.13;;;19.10;88.80;;;;;;5116539;28;20035;-75
2023/07/26 04:08:39;;;;;;;2.20;1.00;;;19.10;88.60;;;;;;5115848;28;20036;-75
2023/07/26 04:11:06;;;;;;;1.40;1.20;;;19.10;88.50;;;;;;5116418;28;20040;-74
2023/07/26 04:13:32;;;;;;;2.17;1.20;;;19.10;88.60;;;;;;5116164;28;20051;-75
2023/07/26 04:15:59;;;;;;;1.80;1.13;;;19.10;88.70;;;;;;5115793;28;20512;-75
2023/07/26 04:18:25;;;;;;;1.00;0.70;;;19.10;88.70;;;;;;5115643;28;20047;-75
2023/07/26 04:20:50;;;;;;;0.93;0.40;;;19.10;88.80;;;;;;5115448;28;20028;-75
2023/07/26 04:23:16;;;;;;;1.38;0.60;;;19.10;88.80;;;;;;5116227;28;20032;-75
2023/07/26 04:25:42;;;;;;;2.70;1.23;;;19.10;88.80;;;;;;5115739;28;20145;-75
2023/07/26 04:28:07;;;;;;;1.90;1.38;;;19.10;88.70;;;;;;5115553;28;20472;-75
2023/07/26 04:30:36;;;;;;;1.20;1.00;;;19.10;88.80;;;;;;5115599;28;20460;-75
2023/07/26 04:33:01;;;;;;;2.30;1.23;;;19.10;88.80;;;;;;5115548;28;20024;-75
2023/07/26 04:35:27;;;;;;;1.38;1.20;;;19.10;88.70;;;;;;5116090;28;20486;-75
2023/07/26 04:37:53;;;;;;;1.85;1.30;;;19.10;88.80;;;;;;5115375;28;20027;-75
2023/07/26 04:40:18;;;;;;;1.50;1.23;;;19.10;88.80;;;;;;5115130;28;20020;-75
2023/07/26 04:42:44;;;;;;;3.85;2.53;;;19.10;88.70;;;;;;5115436;28;20059;-75
2023/07/26 04:45:10;;;;;;;2.00;1.10;;;19.10;88.60;;;;;;5114876;28;20028;-75
2023/07/26 04:47:35;;;;;;;2.38;1.23;;;19.10;88.60;;;;;;5115208;28;20031;-75
2023/07/26 04:50:01;;;;;;;2.05;1.42;;;19.00;88.70;;;;;;5097273;28;20036;-75
2023/07/26 04:52:28;;;;;;;1.75;1.40;;;19.10;88.80;;;;;;5115612;28;20048;-75
2023/07/26 04:54:53;;;;;;;1.55;1.45;;;19.00;88.70;;;;;;5115193;28;20053;-75
2023/07/26 04:57:19;;;;;;;1.55;1.02;;;19.00;88.90;;;;;;5115310;28;20087;-75
2023/07/26 04:59:45;;;;;;;1.67;1.20;;;19.00;89.00;;;;;;5096767;28;20040;-75
2023/07/26 05:02:10;;;;;;;1.67;0.98;;;19.00;89.10;;;;;;5115013;28;20038;-75
2023/07/26 05:04:36;;;;;;;2.17;1.35;;;19.00;89.20;;;;;;5114568;28;20024;-75
2023/07/26 05:07:02;;;;;;;1.40;0.77;;;19.00;89.10;;;;;;5115031;28;20037;-75
2023/07/26 05:09:27;;;;;;;1.90;1.45;;;19.00;89.10;;;;;;5096476;28;20035;-75
2023/07/26 05:11:53;;;;;;;1.60;1.10;;;19.00;89.00;;;;;;5097015;28;20031;-75
2023/07/26 05:14:20;;;;;;;1.55;1.10;;;19.00;89.20;;;;;;5114735;28;20036;-75
2023/07/26 05:16:46;;;;;;;1.40;0.88;;;19.10;89.20;;;;;;5096512;28;20035;-75
2023/07/26 05:19:11;;;;;;;2.35;0.80;;;19.00;89.20;;;;;;5115081;28;20061;-75
2023/07/26 05:21:38;;;;;;;1.65;1.08;;;19.00;89.20;;;;;;5114327;28;20038;-75
2023/07/26 05:24:04;;;;;;;1.50;1.38;;;19.10;89.20;;;;;;5114602;28;20028;-75
2023/07/26 05:26:29;;;;;;;2.63;1.70;;;19.10;89.20;;;;;;5097171;28;20496;-75
2023/07/26 05:28:55;;;;;;;1.55;1.38;;;19.10;89.00;;;;;;5079325;28;20031;-75
2023/07/26 05:31:21;;;;;;;2.95;2.20;;;19.10;89.00;;;;;;5114462;28;20056;-75
2023/07/26 05:33:46;;;;;;;2.90;1.80;;;19.10;88.90;;;;;;5096685;28;20024;-75
2023/07/26 05:36:12;;;;;;;2.33;1.80;;;19.00;89.10;;;;;;5114139;28;20028;-75
2023/07/26 05:38:38;;;;;;;3.05;2.17;;;19.00;89.10;;;;;;5096351;28;20050;-75
2023/07/26 05:41:07;;;;;;;2.38;1.85;;;19.10;89.00;;;;;;5114398;28;20019;-75
2023/07/26 05:43:33;;;;;;;2.15;1.65;;;19.00;88.90;;;;;;5096183;28;20020;-75
2023/07/26 05:46:01;;;;;;;1.63;1.52;;;19.00;89.10;;;;;;5096906;28;20339;-75
2023/07/26 05:48:27;;;;;;;4.30;1.30;;;19.00;89.40;;;;;;5114619;28;20023;-75
2023/07/26 05:50:52;;;;;;;1.83;1.55;;;19.00;89.50;;;;;;5096871;28;20349;-75
2023/07/26 05:53:18;;;;;;;1.95;1.20;;;19.00;89.60;;;;;;5095822;28;20468;-75
2023/07/26 05:55:44;;;;;;;3.53;1.83;;;19.00;89.50;;;;;;5113944;28;20027;-75
2023/07/26 05:58:10;;;;;;;4.30;2.33;;;18.90;89.20;;;;;;5113612;28;20047;-74
2023/07/26 06:00:36;;;;;;;2.80;1.88;;;18.90;89.10;;;;;;5096050;28;20030;-75
2023/07/26 06:03:01;;;;;;;2.40;1.52;;;18.90;89.30;;;;;;5096058;28;20053;-75
2023/07/26 06:05:27;;;;;;;3.05;1.83;;;18.90;89.50;;;;;;5114134;28;20077;-75
2023/07/26 06:07:53;;;;;;;2.30;1.88;;;18.90;89.80;;;;;;5096040;28;20032;-76
2023/07/26 06:10:19;;;;;;;4.05;3.40;;;18.90;90.10;;;;;;5113814;28;20034;-75
2023/07/26 06:12:44;;;;;;;3.63;2.90;;;18.90;90.10;;;;;;5113967;28;20063;-76
2023/07/26 06:15:10;;;;;;;3.95;2.55;;;18.90;90.10;;;;;;5113761;28;20059;-75
2023/07/26 06:17:36;;;;;;;3.45;1.75;;;18.90;90.10;;;;;;5114365;28;20483;-75
2023/07/26 06:20:01;;;;;;;2.25;1.98;;;18.90;90.10;;;;;;5113986;28;20455;-75
2023/07/26 06:22:28;;;;;;;2.17;1.45;;;18.90;90.10;;;;;;5095799;28;20599;-75
2023/07/26 06:24:54;;;;;;;2.88;2.00;;;18.90;90.10;;;;;;5113697;28;20467;-75
2023/07/26 06:27:25;;;;;;;6.40;3.90;;;18.90;90.10;;;;;;5114216;28;20069;-75
2023/07/26 06:29:51;;;;;;;5.22;3.58;;;18.90;90.30;;;;;;5113891;28;20088;-75
2023/07/26 06:32:17;;;;;;;5.13;2.72;;;18.80;90.40;;;;;;5114149;28;20043;-75
2023/07/26 06:34:42;;;;;;;4.80;4.30;;;18.80;90.60;;;;;;5095442;28;20032;-76
2023/07/26 06:37:08;;;;;;;6.07;4.70;;;18.80;90.70;;;;;;5113809;28;20372;-76
2023/07/26 06:39:34;;;;;;;8.80;4.88;;;18.70;90.70;;;;;;5095550;28;20047;-75
2023/07/26 06:42:00;;;;;;;9.73;5.07;;;18.70;90.90;;;;;;5095475;28;20042;-75
2023/07/26 06:44:25;;;;;;;5.45;4.60;;;18.70;91.10;;;;;;5114033;28;20036;-75
2023/07/26 06:46:51;;;;;;;4.13;2.78;;;18.60;91.30;;;;;;5114005;28;20451;-75
2023/07/26 06:49:17;;;;;;;8.07;5.22;;;18.60;91.30;;;;;;5095826;28;20455;-75
2023/07/26 06:51:42;;;;;;;9.00;5.53;;;18.50;91.70;;;;;;5114080;28;20035;-75
2023/07/26 06:54:08;;;;;;;10.50;5.63;;;18.50;92.00;;;;;;5095561;28;20027;-75
2023/07/26 06:56:34;;;;;;;8.02;6.03;;;18.40;92.10;;;;;;5113831;28;20031;-76
2023/07/26 06:59:01;;;;;;;9.45;6.07;;;18.40;92.30;;;;;;5113957;28;20056;-75
2023/07/26 07:01:26;;;;;;;6.80;5.30;;;18.30;92.50;;;;;;5114036;28;20433;-75
2023/07/26 07:03:52;;;;;;;6.68;4.03;;;18.30;92.50;;;;;;5095469;28;20027;-75
2023/07/26 07:06:18;;;;;;;9.63;5.72;;;18.30;92.60;;;;;;5113842;28;20035;-75
2023/07/26 07:08:43;;;;;;;8.63;6.03;;;18.30;92.80;;;;;;5114462;28;20028;-75
2023/07/26 07:11:09;;;;;;;8.32;5.18;;;18.20;92.70;;;;;;5117337;28;20456;-75
2023/07/26 07:13:36;;;;;;;10.38;6.55;;;18.20;93.00;;;;;;5117298;28;20039;-75
2023/07/26 07:16:05;;;;;;;5.05;4.35;;;18.20;93.40;;;;;;5117233;28;20084;-75
2023/07/26 07:18:31;;;;;;;6.68;6.03;;;18.20;93.40;;;;;;5117005;28;20115;-76
2023/07/26 07:21:00;;;;;;;10.32;7.03;;;18.20;93.70;;;;;;5098756;28;20508;-76
2023/07/26 07:23:27;;;;;;;6.45;4.88;;;18.10;94.10;;;;;;5116901;28;20455;-76
2023/07/26 07:25:53;;;;;;;6.15;5.15;;;18.00;94.00;;;;;;5117030;28;20027;-75
2023/07/26 07:28:19;;;;;;;9.85;6.30;;;17.90;94.30;;;;;;5098747;28;20031;-75
2023/07/26 07:30:45;;;;;;;7.13;5.47;;;17.90;94.50;;;;;;5117350;28;20035;-75
2023/07/26 07:33:11;;;;;;;12.52;7.10;;;17.80;95.10;;;;;;5116915;28;20365;-76
2023/07/26 07:35:36;;;;;;;8.52;6.30;;;17.70;95.20;;;;;;5099356;28;20061;-75
2023/07/26 07:38:02;;;;;;;9.32;5.38;;;17.70;95.50;;;;;;5099287;28;20036;-74
2023/07/26 07:40:28;;;;;;;8.68;5.57;;;17.40;95.30;;;;;;5116825;28;20036;-75
2023/07/26 07:42:53;;;;;;;6.50;4.80;;;17.20;95.50;;;;;;5099188;28;20028;-75
2023/07/26 07:45:19;;;;;;;9.60;4.20;;;16.90;95.80;;;;;;5099603;28;20051;-76
2023/07/26 07:47:45;;;;;;;6.95;3.95;;;16.80;96.20;;;;;;5117784;28;20430;-76
2023/07/26 07:50:11;;;;;;;7.43;4.03;;;16.70;96.50;;;;;;5117303;28;20042;-75
2023/07/26 07:52:38;;;;;;;3.53;2.10;;;16.60;96.90;;;;;;5117160;28;20573;-75
2023/07/26 07:55:04;;;;;;;4.07;1.40;;;16.60;97.00;;;;;;5098703;28;20069;-74
2023/07/26 07:57:29;;;;;;;2.95;0.93;;;16.60;96.70;;;;;;5116016;28;20071;-75
2023/07/26 07:59:55;;;;;;;1.80;0.80;;;16.60;96.50;;;;;;5098883;28;20038;-75
2023/07/26 08:02:21;;;;;;;2.08;0.63;;;16.70;96.60;;;;;;5116844;28;20487;-75
2023/07/26 08:04:46;;;;;;;1.17;0.70;;;16.80;96.70;;;;;;5116970;28;20375;-75
2023/07/26 08:07:12;;;;;;;1.27;0.52;;;16.90;96.70;;;;;;5117169;28;20075;-75
2023/07/26 08:09:40;;;;;;;2.65;0.70;;;17.10;96.60;;;;;;5117164;28;20036;-75
2023/07/26 08:12:06;;;;;;;1.70;0.60;;;17.10;96.20;;;;;;5116493;28;20035;-75
2023/07/26 08:14:32;;;;;;;1.42;0.52;;;17.20;96.20;;;;;;5116874;28;20035;-74
2023/07/26 08:16:57;;;;;;;1.65;0.70;;;17.40;96.10;;;;;;5116555;28;20036;-74
2023/07/26 08:19:24;;;;;;;1.65;0.70;;;17.60;96.00;;;;;;5099631;28;20042;-74
2023/07/26 08:21:49;;;;;;;3.00;0.90;;;17.70;95.70;;;;;;5097762;28;20032;-74
2023/07/26 08:24:15;;;;;;;2.50;0.60;;;17.80;94.60;;;;;;5117107;28;20027;-74
2023/07/26 08:26:41;;;;;;;1.23;0.40;;;17.80;94.70;;;;;;5116053;28;20020;-74
2023/07/26 08:29:06;;;;;;;1.10;0.50;;;18.00;94.70;;;;;;5115995;28;20031;-76
2023/07/26 08:31:32;;;;;;;1.33;0.60;;;18.10;94.70;;;;;;5116020;28;20034;-74
2023/07/26 08:33:58;;;;;;;1.33;0.50;;;18.40;94.50;;;;;;5116889;28;20042;-75
2023/07/26 08:36:24;;;;;;;2.47;0.50;;;18.50;94.50;;;;;;5083691;28;20031;-74
2023/07/26 08:38:49;;;;;;;0.93;0.40;;;18.60;94.30;;;;;;5100476;28;20032;-75
2023/07/26 08:41:15;;;;;;;0.88;0.40;;;18.80;94.40;;;;;;5118705;28;20084;-75
2023/07/26 08:43:44;;;;;;;0.70;0.40;;;18.80;93.90;;;;;;5118549;28;20028;-75
2023/07/26 08:46:10;;;;;;;1.17;0.47;;;18.90;93.70;;;;;;5119612;28;20490;-75
2023/07/26 08:48:40;;;;;;;1.77;0.68;;;19.00;93.40;;;;;;5102290;28;20031;-75
2023/07/26 08:51:06;;;;;;;1.00;0.50;;;19.20;93.40;;;;;;5119366;28;20356;-76
2023/07/26 08:53:34;;;;;;;1.67;0.80;;;19.30;93.20;;;;;;5119635;28;20058;-75
2023/07/26 08:56:00;;;;;;;1.33;0.50;;;19.30;93.20;;;;;;5101867;28;20027;-76
2023/07/26 08:58:26;;;;;;;0.93;0.40;;;19.40;94.10;;;;;;5119773;28;20141;-75
2023/07/26 09:00:54;;;;;;;1.13;0.60;;;19.50;93.70;;;;;;5119653;28;20173;-76
2023/07/26 09:03:19;;;;;;;1.35;0.77;;;19.60;93.30;;;;;;5118833;28;20024;-75
2023/07/26 09:05:45;;;;;;;1.88;0.55;;;19.70;94.30;;;;;;5119091;28;20038;-76
2023/07/26 09:08:11;;;;;;;1.08;0.60;;;19.90;94.20;;;;;;5116994;28;20372;-75
2023/07/26 09:10:38;;;;;;;1.55;0.75;;;20.00;93.60;;;;;;5098763;28;20101;-76
2023/07/26 09:13:08;;;;;;;3.80;1.13;;;20.00;92.90;;;;;;5117604;28;20054;-75
2023/07/26 09:15:38;;;;;;;2.05;1.20;;;20.10;93.10;;;;;;5117317;28;20032;-76
2023/07/26 09:18:04;;;;;;;2.63;1.33;;;20.20;92.40;;;;;;5116941;28;20039;-76
2023/07/26 09:20:31;;;;;;;4.03;1.58;;;20.20;92.20;;;;;;5115248;28;20028;-75
2023/07/26 09:23:06;;;;;;;4.18;1.40;;;20.20;91.80;;;;;;5115741;28;20039;-75
2023/07/26 09:25:42;;;;;;;2.22;1.60;;;20.30;92.00;;;;;;5116160;28;20376;-75
2023/07/26 09:28:10;;;;;;;2.97;1.58;;;20.30;92.10;;;;;;5115507;28;20040;-75
2023/07/26 09:30:38;;;;;;;3.42;2.33;;;20.30;91.30;;;;;;5096580;28;20035;-75
2023/07/26 09:33:08;;;;;;;3.63;2.10;;;20.30;91.40;;;;;;5115038;28;20069;-75
2023/07/26 09:35:47;;;;;;;2.60;1.42;;;20.40;91.20;;;;;;5096046;28;20031;-72
2023/07/26 09:38:31;;;;;;;3.50;2.03;;;20.40;91.10;;;;;;5096285;28;20031;-73
2023/07/26 09:40:57;;;;;;;3.67;2.83;;;20.50;92.00;;;;;;5114129;28;20030;-79
2023/07/26 09:43:30;;;;;;;7.40;4.32;;;20.60;92.80;;;;;;5096540;28;20441;-73
2023/07/26 09:46:04;;;;;;;8.27;4.28;;;20.70;91.80;;;;;;5114953;28;20100;-78
2023/07/26 09:48:29;;;;;;;6.85;4.10;;;20.60;91.50;;;;;;5115068;28;20032;-73
2023/07/26 09:50:56;;;;;;;5.70;4.00;;;20.60;91.60;;;;;;5114307;28;20063;-75
2023/07/26 09:53:25;;;;;;;7.63;3.03;;;20.70;91.60;;;;;;5098805;28;20104;-76
2023/07/26 09:55:51;;;;;;;6.57;4.07;;;20.70;91.10;;;;;;5116105;28;20051;-77
2023/07/26 09:58:18;;;;;;;3.25;2.25;;;20.60;91.20;;;;;;5114537;28;20043;-76
2023/07/26 10:00:48;;;;;;;2.67;1.60;;;20.60;91.30;;;;;;5095882;28;20123;-72
2023/07/26 10:03:18;;;;;;;4.25;2.67;;;20.60;91.30;;;;;;5096654;28;20068;-75
2023/07/26 10:05:47;;;;;;;4.40;3.42;;;20.60;91.60;;;;;;5114666;28;20032;-75
2023/07/26 10:08:12;;;;;;;5.35;3.38;;;20.80;92.20;;;;;;5114513;28;20027;-74
2023/07/26 10:10:41;;;;;;;7.03;3.58;;;20.90;91.40;;;;;;5114405;28;20044;-75
2023/07/26 10:13:09;;;;;;;5.70;2.90;;;21.00;90.70;;;;;;5114308;28;20512;-75
2023/07/26 10:15:36;;;;;;;8.23;3.47;;;21.10;90.30;;;;;;5114200;28;20040;-75
2023/07/26 10:18:02;;;;;;;7.30;4.03;;;21.30;90.60;;;;;;5114853;28;20064;-75
2023/07/26 10:20:28;;;;;;;6.72;4.00;;;21.20;90.30;;;;;;5096668;28;20114;-74
2023/07/26 10:22:59;;;;;;;4.03;2.67;;;21.10;88.60;;;;;;5097027;28;20035;-75
2023/07/26 10:25:28;;;;;;;9.27;4.43;;;20.80;88.90;;;;;;5097259;28;20041;-75
2023/07/26 10:27:54;;;;;;;7.28;3.97;;;20.60;90.30;;;;;;5115730;28;20156;-75
2023/07/26 10:30:19;;;;;;;5.38;2.75;;;20.20;91.10;;;;;;5116093;28;20062;-74
2023/07/26 10:32:49;;;;;;;2.70;1.40;;;19.70;91.20;;;;;;5096254;28;20495;-75
2023/07/26 10:35:32;;;;;;;4.78;1.65;;;19.40;91.80;;;;;;5113890;28;20073;-75
2023/07/26 10:37:59;;;;;;;5.05;2.05;;;19.30;92.40;;;;;;5113923;28;20035;-75
2023/07/26 10:40:29;;;;;;;3.35;1.50;;;19.30;93.20;;;;;;5114196;28;20030;-75
2023/07/26 10:42:55;;;;;;;2.60;1.30;;;19.20;93.40;;;;;;5113956;28;20027;-75
2023/07/26 10:45:40;;;;;;;5.28;2.25;;;19.20;93.40;;;;;;5117803;28;20019;-74
2023/07/26 10:48:17;;;;;;;5.38;2.42;;;19.30;94.00;;;;;;5099078;28;20138;-74
2023/07/26 10:50:43;;;;;;;3.15;1.92;;;19.40;94.20;;;;;;5099644;28;20108;-74
2023/07/26 10:53:29;;;;;;;3.65;2.20;;;19.50;94.60;;;;;;5100201;28;20051;-74
2023/07/26 10:56:11;;;;;;;3.35;1.88;;;19.50;95.10;;;;;;5118434;28;20083;-75
2023/07/26 10:58:48;;;;;;;5.65;3.35;;;19.60;94.90;;;;;;5099869;28;20377;-74
2023/07/26 11:01:40;;;;;;;7.70;4.13;;;19.70;95.60;;;;;;5118733;28;20119;-76
2023/07/26 11:04:14;;;;;;;5.38;3.60;;;19.90;96.40;;;;;;5119034;28;20024;-75
2023/07/26 11:06:57;;;;;;;5.15;3.22;;;20.10;96.40;;;;;;5117776;28;20032;-74
2023/07/26 11:09:36;;;;;;;5.18;3.05;;;20.30;96.00;;;;;;5098982;28;20117;-74
2023/07/26 11:12:09;;;;;;;5.85;2.97;;;20.50;95.30;;;;;;5117903;28;20023;-75
2023/07/26 11:14:36;;;;;;;4.90;2.15;;;20.70;95.30;;;;;;5122285;28;20031;-76
2023/07/26 11:17:14;;;;;;;4.20;2.80;;;20.90;95.00;;;;;;5123664;28;20019;-75
2023/07/26 11:19:48;;;;;;;10.93;4.75;;;21.10;95.40;;;;;;5123852;28;20035;-75
2023/07/26 11:22:14;;;;;;;10.60;3.85;;;21.40;96.30;;;;;;5123134;28;20028;-75
2023/07/26 11:24:39;;;;;;;4.93;3.22;;;21.50;94.80;;;;;;5122916;28;20031;-76
2023/07/26 11:27:06;;;;;;;6.55;2.80;;;21.60;94.00;;;;;;5122599;28;20027;-75
2023/07/26 11:29:33;;;;;;;4.68;2.33;;;21.70;93.70;;;;;;5121426;28;20492;-75
2023/07/26 11:31:58;;;;;;;5.13;2.40;;;21.80;92.60;;;;;;5120815;28;20043;-75
2023/07/26 11:34:24;;;;;;;4.78;2.33;;;21.80;91.60;;;;;;5120155;28;20031;-75
2023/07/26 11:36:50;;;;;;;5.30;2.80;;;21.70;92.00;;;;;;5120379;28;20031;-76
2023/07/26 11:39:24;;;;;;;5.03;2.47;;;21.60;92.00;;;;;;5121719;28;20106;-77
2023/07/26 11:41:51;;;;;;;5.45;2.63;;;21.40;91.60;;;;;;5122777;28;20035;-75
2023/07/26 11:44:21;;;;;;;4.47;2.63;;;21.10;91.90;;;;;;5122648;28;20028;-76
2023/07/26 11:46:47;;;;;;;3.53;2.42;;;20.80;91.90;;;;;;5121592;28;20460;-76
2023/07/26 11:49:22;;;;;;;3.63;2.20;;;20.70;92.60;;;;;;5121314;28;20390;-75
2023/07/26 11:51:49;;;;;;;5.68;2.28;;;20.50;92.50;;;;;;5121014;28;20032;-75
2023/07/26 11:54:15;;;;;;;4.93;2.20;;;20.40;92.90;;;;;;5120645;28;20027;-76
2023/07/26 11:56:42;;;;;;;5.07;2.45;;;20.30;93.40;;;;;;5118703;28;20087;-75
2023/07/26 11:59:09;;;;;;;5.10;2.15;;;20.50;93.90;;;;;;5119044;28;20098;-76
2023/07/26 12:01:37;;;;;;;4.50;2.45;;;20.70;93.20;;;;;;5119121;28;20026;-75
2023/07/26 12:04:14;;;;;;;4.60;1.83;;;20.80;90.80;;;;;;5117876;28;20027;-75
2023/07/26 12:06:41;;;;;;;3.17;1.80;;;20.80;90.70;;;;;;5118666;28;20083;-76
2023/07/26 12:09:11;;;;;;;2.70;1.63;;;20.70;90.80;;;;;;5117825;28;20471;-76
2023/07/26 12:11:42;;;;;;;3.53;1.73;;;20.70;91.00;;;;;;5118475;28;20039;-75
2023/07/26 12:14:08;;;;;;;4.15;1.70;;;20.60;91.10;;;;;;5117355;28;20032;-75
2023/07/26 12:16:34;;;;;;;2.90;1.70;;;20.60;91.40;;;;;;5098100;28;20032;-75
2023/07/26 12:19:01;;;;;;;4.95;1.77;;;20.60;91.70;;;;;;5116335;28;20046;-75
2023/07/26 12:21:29;;;;;;;3.20;1.55;;;20.60;91.50;;;;;;5116136;28;20049;-75
2023/07/26 12:23:59;;;;;;;2.10;1.60;;;20.50;91.10;;;;;;5116621;28;20027;-75
2023/07/26 12:26:30;;;;;;;2.50;1.60;;;20.50;91.00;;;;;;5116534;28;20026;-75
2023/07/26 12:28:58;;;;;;;3.83;1.63;;;20.50;90.70;;;;;;5116173;28;20028;-75
2023/07/26 12:31:24;;;;;;;4.07;1.50;;;20.70;90.80;;;;;;5097769;28;20075;-75
2023/07/26 12:33:58;;;;;;;4.80;1.80;;;20.80;91.10;;;;;;5116817;28;20024;-75
2023/07/26 12:36:26;;;;;;;3.28;1.40;;;21.00;90.60;;;;;;5116280;28;20028;-75
2023/07/26 12:38:51;;;;;;;3.38;1.58;;;21.10;89.40;;;;;;5116296;28;20038;-75
2023/07/26 12:41:17;;;;;;;2.90;1.20;;;21.30;88.70;;;;;;5116588;28;20521;-75
2023/07/26 12:43:43;;;;;;;2.80;1.27;;;21.50;88.90;;;;;;5097745;28;20104;-76
2023/07/26 12:46:09;;;;;;;1.60;0.93;;;21.70;86.30;;;;;;5116202;28;20119;-75